createdAt,value
2019-02-02T00:01:34.079Z,13.07
2019-02-02T00:04:05.162Z,12.73
2019-02-02T00:06:36.005Z,12.87
2019-02-02T00:09:09.129Z,13.47
2019-02-02T00:11:40.572Z,13.33
2019-02-02T00:14:11.396Z,13.33
2019-02-02T00:16:41.187Z,13.67
2019-02-02T00:19:12.206Z,12.10
2019-02-02T00:21:42.864Z,14.97
2019-02-02T00:24:14.481Z,14.83
2019-02-02T00:26:45.509Z,14.50
2019-02-02T00:29:16.373Z,12.80
2019-02-02T00:31:47.497Z,14.57
2019-02-02T00:34:19.129Z,14.77
2019-02-02T00:36:48.809Z,13.73
2019-02-02T00:39:20.081Z,14.63
2019-02-02T00:41:50.985Z,14.73
2019-02-02T00:44:22.447Z,14.23
2019-02-02T00:46:53.181Z,14.67
2019-02-02T00:49:23.913Z,14.70
2019-02-02T00:51:55.165Z,12.87
2019-02-02T00:54:26.141Z,14.30
2019-02-02T00:56:56.790Z,14.97
2019-02-02T00:59:26.885Z,13.97
2019-02-02T01:01:59.477Z,14.40
2019-02-02T01:04:30.105Z,15.17
2019-02-02T01:06:59.845Z,14.33
2019-02-02T01:09:30.891Z,14.97
2019-02-02T01:12:00.786Z,12.97
2019-02-02T01:14:30.933Z,16.63
2019-02-02T01:17:02.109Z,16.93
2019-02-02T01:19:36.276Z,17.47
2019-02-02T01:22:06.825Z,18.47
2019-02-02T01:24:37.173Z,17.17
2019-02-02T01:27:08.224Z,16.93
2019-02-02T01:29:38.490Z,17.07
2019-02-02T01:32:13.910Z,16.33
2019-02-02T01:34:44.069Z,14.03
2019-02-02T01:37:14.310Z,17.60
2019-02-02T01:39:48.395Z,17.43
2019-02-02T01:42:17.836Z,18.13
2019-02-02T01:44:48.963Z,17.67
2019-02-02T01:47:20.132Z,14.90
2019-02-02T01:49:50.869Z,17.53
2019-02-02T01:52:21.861Z,17.90
2019-02-02T01:54:53.101Z,15.33
2019-02-02T01:57:23.868Z,17.13
2019-02-02T01:59:54.018Z,16.63
2019-02-02T02:02:29.930Z,16.97
2019-02-02T02:05:00.305Z,17.17
2019-02-02T02:07:31.197Z,16.97
2019-02-02T02:10:01.827Z,13.47
2019-02-02T02:12:32.749Z,16.97
2019-02-02T02:15:03.352Z,16.53
2019-02-02T02:17:33.382Z,17.17
2019-02-02T02:20:06.762Z,16.80
2019-02-02T02:22:41.225Z,17.20
2019-02-02T02:25:17.066Z,17.87
2019-02-02T02:27:48.054Z,17.47
2019-02-02T02:30:25.629Z,17.60
2019-02-02T02:32:56.463Z,17.70
2019-02-02T02:35:26.208Z,14.83
2019-02-02T02:38:00.006Z,17.17
2019-02-02T02:40:29.874Z,17.27
2019-02-02T02:43:00.814Z,17.23
2019-02-02T02:45:31.625Z,16.57
2019-02-02T02:48:01.684Z,15.07
2019-02-02T02:50:31.497Z,17.00
2019-02-02T02:53:02.506Z,17.47
2019-02-02T02:55:34.100Z,16.17
2019-02-02T02:58:06.445Z,16.63
2019-02-02T03:00:37.425Z,16.90
2019-02-02T03:03:10.218Z,16.83
2019-02-02T03:05:41.318Z,15.70
2019-02-02T03:08:11.742Z,17.00
2019-02-02T03:10:42.897Z,13.93
2019-02-02T03:13:13.178Z,15.53
2019-02-02T03:15:44.309Z,16.00
2019-02-02T03:18:15.142Z,16.67
2019-02-02T03:20:45.895Z,15.60
2019-02-02T03:23:16.610Z,13.77
2019-02-02T03:25:48.910Z,16.80
2019-02-02T03:28:19.921Z,16.33
2019-02-02T03:30:52.430Z,15.93
2019-02-02T03:33:23.199Z,16.73
2019-02-02T03:35:53.006Z,16.77
2019-02-02T03:38:22.777Z,16.63
2019-02-02T03:40:52.867Z,16.60
2019-02-02T03:43:22.765Z,16.77
2019-02-02T03:45:52.648Z,16.70
2019-02-02T03:48:23.350Z,15.20
2019-02-02T03:50:53.426Z,18.17
2019-02-02T03:53:23.585Z,17.30
2019-02-02T03:55:53.885Z,18.53
2019-02-02T03:58:25.099Z,17.90
2019-02-02T04:00:57.064Z,15.70
2019-02-02T04:03:30.203Z,18.60
2019-02-02T04:06:04.162Z,18.33
2019-02-02T04:08:35.929Z,17.80
2019-02-02T04:11:07.657Z,23.53
2019-02-02T04:13:38.301Z,16.70
2019-02-02T04:16:08.451Z,19.97
2019-02-02T04:18:40.213Z,19.23
2019-02-02T04:21:11.353Z,18.47
2019-02-02T04:23:41.548Z,19.30
2019-02-02T04:26:11.482Z,18.53
2019-02-02T04:28:40.725Z,19.53
2019-02-02T04:31:11.774Z,20.43
2019-02-02T04:33:42.786Z,20.57
2019-02-02T04:36:14.532Z,16.77
2019-02-02T04:38:44.745Z,19.37
2019-02-02T04:41:16.629Z,20.67
2019-02-02T04:43:47.714Z,19.33
2019-02-02T04:46:18.957Z,21.50
2019-02-02T04:48:50.370Z,20.73
2019-02-02T04:51:21.546Z,20.67
2019-02-02T04:53:53.522Z,17.63
2019-02-02T04:56:24.353Z,20.87
2019-02-02T04:58:55.485Z,17.43
2019-02-02T05:01:25.378Z,21.50
2019-02-02T05:03:56.033Z,20.73
2019-02-02T05:06:28.373Z,19.27
2019-02-02T05:08:58.602Z,20.87
2019-02-02T05:11:31.962Z,20.30
2019-02-02T05:14:02.834Z,17.67
2019-02-02T05:16:32.929Z,20.40
2019-02-02T05:19:04.049Z,21.23
2019-02-02T05:21:33.963Z,19.63
2019-02-02T05:24:03.972Z,17.90
2019-02-02T05:26:34.226Z,22.00
2019-02-02T05:29:06.917Z,21.30
2019-02-02T05:31:38.205Z,22.50
2019-02-02T05:34:10.240Z,21.53
2019-02-02T05:36:44.042Z,21.90
2019-02-02T05:39:14.869Z,21.27
2019-02-02T05:41:45.585Z,21.23
2019-02-02T05:44:16.786Z,21.70
2019-02-02T05:46:46.800Z,18.83
2019-02-02T05:49:17.512Z,22.37
2019-02-02T05:51:49.807Z,21.07
2019-02-02T05:54:19.627Z,21.10
2019-02-02T05:56:50.393Z,18.23
2019-02-02T05:59:21.401Z,21.60
2019-02-02T06:01:51.297Z,22.43
2019-02-02T06:04:21.079Z,23.13
2019-02-02T06:06:51.729Z,22.70
2019-02-02T06:09:22.914Z,23.33
2019-02-02T06:11:53.865Z,24.23
2019-02-02T06:14:23.982Z,21.13
2019-02-02T06:16:56.995Z,24.80
2019-02-02T06:19:29.560Z,25.00
2019-02-02T06:22:01.068Z,26.67
2019-02-02T06:24:31.020Z,24.57
2019-02-02T06:27:00.906Z,20.90
2019-02-02T06:29:30.989Z,23.57
2019-02-02T06:32:11.606Z,24.43
2019-02-02T06:34:33.594Z,23.83
2019-02-02T06:37:05.022Z,23.10
2019-02-02T06:39:34.913Z,23.07
2019-02-02T06:42:05.761Z,20.93
2019-02-02T06:44:38.560Z,23.90
2019-02-02T06:47:09.800Z,24.07
2019-02-02T06:49:42.295Z,24.60
2019-02-02T06:52:13.926Z,22.20
2019-02-02T06:54:44.793Z,25.03
2019-02-02T06:57:14.949Z,26.20
2019-02-02T06:59:45.092Z,21.80
2019-02-02T07:02:19.028Z,25.50
2019-02-02T07:04:49.994Z,25.33
2019-02-02T07:07:20.040Z,26.20
2019-02-02T07:09:50.883Z,22.03
2019-02-02T07:12:21.865Z,25.87
2019-02-02T07:14:52.072Z,25.80
2019-02-02T07:17:21.963Z,25.60
2019-02-02T07:19:52.055Z,26.20
2019-02-02T07:22:23.057Z,26.80
2019-02-02T07:24:52.978Z,27.43
2019-02-02T07:27:23.613Z,27.27
2019-02-02T07:29:53.670Z,22.70
2019-02-02T07:32:24.715Z,26.10
2019-02-02T07:34:54.896Z,24.70
2019-02-02T07:37:26.026Z,24.60
2019-02-02T07:39:56.774Z,25.93
2019-02-02T07:42:26.846Z,25.87
2019-02-02T07:44:57.677Z,24.70
2019-02-02T07:47:28.513Z,26.80
2019-02-02T07:49:59.942Z,26.23
2019-02-02T07:52:32.837Z,25.30
2019-02-02T07:55:02.976Z,24.50
2019-02-02T07:57:33.245Z,25.50
2019-02-02T08:00:04.301Z,22.87
2019-02-02T08:02:37.219Z,26.37
2019-02-02T08:05:10.342Z,26.67
2019-02-02T08:07:41.544Z,25.77
2019-02-02T08:10:14.601Z,27.90
2019-02-02T08:12:45.874Z,27.63
2019-02-02T08:15:25.024Z,27.27
2019-02-02T08:17:55.323Z,24.27
2019-02-02T08:20:28.170Z,27.60
2019-02-02T08:22:58.641Z,28.93
2019-02-02T08:25:28.418Z,28.23
2019-02-02T08:27:59.121Z,24.73
2019-02-02T08:30:29.997Z,28.77
2019-02-02T08:33:00.133Z,29.37
2019-02-02T08:35:32.130Z,30.40
2019-02-02T08:38:04.166Z,30.00
2019-02-02T08:40:35.873Z,30.27
2019-02-02T08:43:06.042Z,30.67
2019-02-02T08:45:37.165Z,27.30
2019-02-02T08:48:07.910Z,30.13
2019-02-02T08:50:38.167Z,32.20
2019-02-02T08:53:10.265Z,30.17
2019-02-02T08:55:41.378Z,30.33
2019-02-02T08:58:13.513Z,31.03
2019-02-02T09:00:45.506Z,30.67
2019-02-02T09:03:15.349Z,30.93
2019-02-02T09:05:50.796Z,31.27
2019-02-02T09:08:22.129Z,30.47
2019-02-02T09:11:10.997Z,27.33
2019-02-02T09:14:01.913Z,30.83
2019-02-02T09:16:50.698Z,30.83
2019-02-02T09:19:39.684Z,31.23
2019-02-02T09:22:28.795Z,29.30
2019-02-02T09:25:17.345Z,28.53
2019-02-02T09:28:06.165Z,28.60
2019-02-02T09:30:55.023Z,29.67
2019-02-02T09:33:44.147Z,29.60
2019-02-02T09:36:33.682Z,29.13
2019-02-02T09:39:22.118Z,27.57
2019-02-02T09:42:11.456Z,31.10
2019-02-02T09:45:02.505Z,31.03
2019-02-02T09:47:53.589Z,30.37
2019-02-02T09:50:42.009Z,31.00
2019-02-02T09:53:31.098Z,31.00
2019-02-02T09:56:19.710Z,30.97
2019-02-02T09:59:09.686Z,30.83
2019-02-02T10:01:58.754Z,28.70
2019-02-02T10:04:46.701Z,30.87
2019-02-02T10:07:35.953Z,31.60
2019-02-02T10:10:26.443Z,31.00
2019-02-02T11:21:20.354Z,32.20
2019-02-02T11:24:09.142Z,29.40
2019-02-02T11:26:58.218Z,33.13
2019-02-02T11:29:48.668Z,31.23
2019-02-02T11:32:38.501Z,32.03
2019-02-02T11:35:29.299Z,31.23
2019-02-02T11:38:17.542Z,31.43
2019-02-02T11:41:05.292Z,32.70
2019-02-02T11:43:53.741Z,33.00
2019-02-02T11:46:42.808Z,31.03
2019-02-02T11:49:31.457Z,32.57
2019-02-02T11:52:23.228Z,32.70
2019-02-02T11:55:18.890Z,32.70
2019-02-02T11:58:07.019Z,31.13
2019-02-02T12:00:56.310Z,33.07
2019-02-02T12:03:45.337Z,32.77
2019-02-02T12:06:33.377Z,33.87
2019-02-02T12:09:21.374Z,33.20
2019-02-02T12:12:09.712Z,32.63
2019-02-02T12:14:57.951Z,31.80
2019-02-02T12:17:28.098Z,32.07
2019-02-02T12:20:18.373Z,32.60
2019-02-02T12:22:49.101Z,33.30
2019-02-02T12:25:19.208Z,34.53
2019-02-02T12:27:49.106Z,35.60
2019-02-02T12:30:28.485Z,33.97
2019-02-02T12:33:02.759Z,33.97
2019-02-02T12:35:30.567Z,34.37
2019-02-02T12:38:00.775Z,35.00
2019-02-02T12:40:31.979Z,35.27
2019-02-02T12:43:02.817Z,36.30
2019-02-02T12:45:46.990Z,34.57
2019-02-02T12:48:17.195Z,34.63
2019-02-02T12:50:47.130Z,35.97
2019-02-02T12:53:16.754Z,36.43
2019-02-02T12:55:47.499Z,39.30
2019-02-02T12:58:18.229Z,37.87
2019-02-02T13:00:50.155Z,38.93
2019-02-02T13:03:20.361Z,38.23
2019-02-02T13:05:51.590Z,38.03
2019-02-02T13:08:23.982Z,34.53
2019-02-02T13:10:54.817Z,39.77
2019-02-02T13:13:25.839Z,39.83
2019-02-02T13:15:55.958Z,39.70
2019-02-02T13:18:28.618Z,35.93
2019-02-02T13:20:58.433Z,41.87
2019-02-02T13:23:28.233Z,40.37
2019-02-02T13:26:05.505Z,40.73
2019-02-02T13:28:31.522Z,35.30
2019-02-02T13:31:02.644Z,35.13
2019-02-02T13:33:32.345Z,36.53
2019-02-02T13:36:03.495Z,34.80
2019-02-02T13:38:36.306Z,35.33
2019-02-02T13:41:07.559Z,34.50
2019-02-02T13:43:40.586Z,35.17
2019-02-02T13:46:10.721Z,34.83
2019-02-02T13:48:41.857Z,35.07
2019-02-02T13:51:12.997Z,35.73
2019-02-02T13:53:44.425Z,41.80
2019-02-02T13:56:14.653Z,34.07
2019-02-02T13:58:46.666Z,36.07
2019-02-02T14:01:17.495Z,42.50
2019-02-02T14:03:48.108Z,41.17
2019-02-02T14:06:18.159Z,41.23
2019-02-02T14:08:48.013Z,42.67
2019-02-02T14:11:18.993Z,34.57
2019-02-02T14:13:50.665Z,40.90
2019-02-02T14:16:23.737Z,42.23
2019-02-02T14:18:54.572Z,41.50
2019-02-02T14:21:25.419Z,42.20
2019-02-02T14:23:57.196Z,39.93
2019-02-02T14:26:27.157Z,37.87
2019-02-02T14:28:58.219Z,41.70
2019-02-02T14:31:29.132Z,41.87
2019-02-02T14:33:58.921Z,40.30
2019-02-02T14:36:30.548Z,41.00
2019-02-02T14:39:01.525Z,41.53
2019-02-02T14:41:33.637Z,39.60
2019-02-02T14:44:04.411Z,42.37
2019-02-02T14:46:34.165Z,41.43
2019-02-02T14:49:05.789Z,41.83
2019-02-02T14:51:36.729Z,41.60
2019-02-02T14:54:07.465Z,42.63
2019-02-02T14:56:38.184Z,38.33
2019-02-02T14:59:11.005Z,44.23
2019-02-02T15:01:42.036Z,43.47
2019-02-02T15:04:12.744Z,44.37
2019-02-02T15:06:43.791Z,43.67
2019-02-02T15:09:15.839Z,43.33
2019-02-02T15:11:48.259Z,44.33
2019-02-02T15:14:21.167Z,38.60
2019-02-02T15:16:53.091Z,43.40
2019-02-02T15:19:23.738Z,39.07
2019-02-02T15:21:52.952Z,44.27
2019-02-02T15:24:23.605Z,43.30
2019-02-02T15:26:54.364Z,44.07
2019-02-02T15:29:25.392Z,45.93
2019-02-02T15:31:55.209Z,46.27
2019-02-02T15:34:24.968Z,45.27
2019-02-02T15:36:56.317Z,44.63
2019-02-02T15:39:26.558Z,44.03
2019-02-02T15:41:57.631Z,44.27
2019-02-02T15:44:28.514Z,41.13
2019-02-02T15:46:58.326Z,45.87
2019-02-02T15:49:28.064Z,45.53
2019-02-02T15:51:58.082Z,47.93
2019-02-02T15:54:31.114Z,46.80
2019-02-02T15:57:01.758Z,46.13
2019-02-02T15:59:33.517Z,46.17
2019-02-02T16:02:03.262Z,42.93
2019-02-02T16:04:33.438Z,45.83
2019-02-02T16:07:05.213Z,46.07
2019-02-02T16:09:35.112Z,42.03
2019-02-02T16:12:05.349Z,45.83
2019-02-02T16:14:35.180Z,44.33
2019-02-02T16:17:07.054Z,47.00
2019-02-02T16:19:42.073Z,46.77
2019-02-02T16:22:11.835Z,46.17
2019-02-02T16:24:41.902Z,42.33
2019-02-02T16:27:12.903Z,45.23
2019-02-02T16:29:44.013Z,42.20
2019-02-02T16:32:14.797Z,46.17
2019-02-02T16:34:45.514Z,46.13
2019-02-02T16:37:18.443Z,49.63
2019-02-02T16:39:48.329Z,38.77
2019-02-02T16:42:20.093Z,40.13
2019-02-02T16:44:49.341Z,43.43
2019-02-02T16:47:20.986Z,42.73
2019-02-02T16:49:51.010Z,40.63
2019-02-02T16:52:22.930Z,39.43
2019-02-02T16:54:53.067Z,43.23
2019-02-02T16:57:22.933Z,38.43
2019-02-02T16:59:53.014Z,39.03
2019-02-02T17:02:25.363Z,46.30
2019-02-02T17:04:56.063Z,40.90
2019-02-02T17:07:26.218Z,38.80
2019-02-02T17:09:56.970Z,45.70
2019-02-02T17:12:26.728Z,40.90
2019-02-02T17:14:56.415Z,42.10
2019-02-02T17:17:27.343Z,39.37
2019-02-02T17:19:58.118Z,40.30
2019-02-02T17:22:28.047Z,44.20
2019-02-02T17:24:58.781Z,45.77
2019-02-02T17:27:28.039Z,43.83
2019-02-02T17:30:01.480Z,45.60
2019-02-02T17:32:31.188Z,48.20
2019-02-02T17:35:01.914Z,44.83
2019-02-02T17:37:34.441Z,46.80
2019-02-02T17:40:05.059Z,47.93
2019-02-02T17:42:35.798Z,48.40
2019-02-02T17:45:08.397Z,48.07
2019-02-02T17:47:40.359Z,48.03
2019-02-02T17:50:12.625Z,48.77
2019-02-02T17:52:43.342Z,44.47
2019-02-02T17:55:14.385Z,48.23
2019-02-02T17:57:45.415Z,47.87
2019-02-02T18:00:18.314Z,48.43
2019-02-02T18:02:48.216Z,49.17
2019-02-02T18:05:19.179Z,46.00
2019-02-02T18:07:51.826Z,45.77
2019-02-02T18:10:22.025Z,40.47
2019-02-02T18:12:52.030Z,46.37
2019-02-02T18:15:24.545Z,48.60
2019-02-02T18:17:57.218Z,43.83
2019-02-02T18:20:27.013Z,48.60
2019-02-02T18:22:57.649Z,44.10
2019-02-02T18:25:28.281Z,47.07
2019-02-02T18:27:59.841Z,47.90
2019-02-02T18:30:30.949Z,47.53
2019-02-02T18:33:01.790Z,41.17
2019-02-02T18:35:32.457Z,45.63
2019-02-02T18:38:04.882Z,43.33
2019-02-02T18:40:39.980Z,46.40
2019-02-02T18:43:08.801Z,45.27
2019-02-02T18:45:39.357Z,46.37
2019-02-02T18:48:12.774Z,42.60
2019-02-02T18:50:43.421Z,45.97
2019-02-02T18:53:16.822Z,47.53
2019-02-02T18:55:49.229Z,42.23
2019-02-02T18:58:18.965Z,45.20
2019-02-02T19:00:48.746Z,45.20
2019-02-02T19:03:19.345Z,47.33
2019-02-02T19:05:49.985Z,42.77
2019-02-02T19:08:19.764Z,45.73
2019-02-02T19:10:49.534Z,47.40
2019-02-02T19:13:20.959Z,45.07
2019-02-02T19:15:52.013Z,45.80
2019-02-02T19:18:22.670Z,44.63
2019-02-02T19:20:53.240Z,45.77
2019-02-02T19:23:25.688Z,44.07
2019-02-02T19:25:56.450Z,43.67
2019-02-02T19:28:39.125Z,47.00
2019-02-02T19:31:00.750Z,39.07
2019-02-02T19:33:31.425Z,43.40
2019-02-02T19:36:02.074Z,43.87
2019-02-02T19:38:34.036Z,42.00
2019-02-02T19:41:05.246Z,42.60
2019-02-02T19:43:36.090Z,43.23
2019-02-02T19:46:07.514Z,41.80
2019-02-02T19:48:38.384Z,37.47
2019-02-02T19:51:08.167Z,40.73
2019-02-02T19:53:38.811Z,39.50
2019-02-02T19:56:09.678Z,36.17
2019-02-02T19:58:41.937Z,38.97
2019-02-02T20:01:14.335Z,35.90
2019-02-02T20:03:44.854Z,37.50
2019-02-02T20:06:16.050Z,38.63
2019-02-02T20:08:46.711Z,37.07
2019-02-02T20:11:16.713Z,37.13
2019-02-02T20:13:46.634Z,36.00
2019-02-02T20:16:16.368Z,35.97
2019-02-02T20:18:50.062Z,34.47
2019-02-02T20:21:20.098Z,37.63
2019-02-02T20:23:53.777Z,36.73
2019-02-02T20:26:25.556Z,34.63
2019-02-02T20:28:56.223Z,36.30
2019-02-02T20:31:28.970Z,35.97
2019-02-02T20:34:00.765Z,38.53
2019-02-02T20:36:31.524Z,36.27
2019-02-02T20:39:02.234Z,36.77
2019-02-02T20:41:35.550Z,34.87
2019-02-02T20:44:06.494Z,34.73
2019-02-02T20:46:37.142Z,33.30
2019-02-02T20:49:08.005Z,33.33
2019-02-02T20:51:40.565Z,37.87
2019-02-02T20:54:10.473Z,38.07
2019-02-02T20:57:00.594Z,38.07
2019-02-02T20:59:32.005Z,36.67
2019-02-02T21:02:01.957Z,36.90
2019-02-02T21:04:35.310Z,38.57
2019-02-02T21:07:06.274Z,34.10
2019-02-02T21:09:40.036Z,36.60
2019-02-02T21:12:14.126Z,36.80
2019-02-02T21:14:45.994Z,35.60
2019-02-02T21:17:17.092Z,38.03
2019-02-02T21:19:48.866Z,36.37
2019-02-02T21:22:18.633Z,34.63
2019-02-02T21:24:50.410Z,36.27
2019-02-02T21:27:22.293Z,36.93
2019-02-02T21:29:53.487Z,35.90
2019-02-02T21:32:24.210Z,34.87
2019-02-02T21:34:56.094Z,36.10
2019-02-02T21:37:29.000Z,37.33
2019-02-02T21:40:01.085Z,33.27
2019-02-02T21:42:34.099Z,33.30
2019-02-02T21:45:08.069Z,37.23
2019-02-02T21:47:38.702Z,36.90
2019-02-02T21:50:14.007Z,37.17
2019-02-02T21:52:45.230Z,37.93
2019-02-02T21:55:21.726Z,36.53
2019-02-02T21:57:52.931Z,38.53
2019-02-02T22:00:26.746Z,39.43
2019-02-02T22:02:56.661Z,37.60
2019-02-02T22:05:27.808Z,39.27
2019-02-02T22:07:58.083Z,39.10
2019-02-02T22:10:29.207Z,39.37
2019-02-02T22:13:00.898Z,40.07
2019-02-02T22:15:32.378Z,39.27
2019-02-02T22:18:02.441Z,38.73
2019-02-02T22:20:35.154Z,39.07
2019-02-02T22:23:06.181Z,37.00
2019-02-02T22:25:38.782Z,40.73
2019-02-02T22:28:09.614Z,40.40
2019-02-02T22:30:39.775Z,41.13
2019-02-02T22:33:10.917Z,42.30
2019-02-02T22:35:43.211Z,43.40
2019-02-02T22:38:13.980Z,42.87
2019-02-02T22:40:43.713Z,44.63
2019-02-02T22:43:16.145Z,42.90
2019-02-02T22:45:46.714Z,44.53
2019-02-02T22:48:19.343Z,45.13
2019-02-02T22:50:50.061Z,42.73
2019-02-02T22:53:19.822Z,41.47
2019-02-02T22:55:50.552Z,42.07
2019-02-02T22:58:23.350Z,43.27
2019-02-02T23:01:02.523Z,41.63
2019-02-02T23:03:37.830Z,43.67
2019-02-02T23:06:18.887Z,43.17
2019-02-02T23:09:08.501Z,42.17
2019-02-02T23:11:40.789Z,42.30
2019-02-02T23:14:23.362Z,41.63
2019-02-02T23:16:54.034Z,38.50
2019-02-02T23:19:24.787Z,39.30
2019-02-02T23:21:55.910Z,41.10
2019-02-02T23:24:25.788Z,42.47
2019-02-02T23:26:56.523Z,40.60
2019-02-02T23:29:26.680Z,40.77
2019-02-02T23:31:57.404Z,42.13
2019-02-02T23:34:28.342Z,37.20
2019-02-02T23:36:59.570Z,41.10
2019-02-02T23:39:31.686Z,42.17
2019-02-02T23:42:01.756Z,42.17
2019-02-02T23:44:31.528Z,41.67
2019-02-02T23:47:02.248Z,43.20
2019-02-02T23:49:32.090Z,38.50
2019-02-02T23:52:05.676Z,41.23
2019-02-02T23:54:36.723Z,41.53
2019-02-02T23:57:06.588Z,41.60
2019-02-02T23:59:36.673Z,40.73
